sensor_id;sensor_type;location;lat;lon;timestamp;temperature;humidity
19654;DHT22;9975;48.046;7.804;2023-02-03T01:57:05;5.50;99.90
19654;DHT22;9975;48.046;7.804;2023-02-03T01:59:33;5.60;99.90
19654;DHT22;9975;48.046;7.804;2023-02-03T02:02:00;5.60;99.90
19654;DHT22;9975;48.046;7.804;2023-02-03T02:04:31;5.70;99.90
19654;DHT22;9975;48.046;7.804;2023-02-03T02:06:58;5.70;99.90
19654;DHT22;9975;48.046;7.804;2023-02-03T02:09:25;5.70;99.90
19654;DHT22;9975;48.046;7.804;2023-02-03T02:11:51;5.70;99.90
19654;DHT22;9975;48.046;7.804;2023-02-03T02:14:16;5.50;99.90
19654;DHT22;9975;48.046;7.804;2023-02-03T02:19:48;5.70;99.90
19654;DHT22;9975;48.046;7.804;2023-02-03T02:22:28;5.60;99.90
19654;DHT22;9975;48.046;7.804;2023-02-03T02:35:57;5.60;99.90
19654;DHT22;9975;48.046;7.804;2023-02-03T02:38:48;5.50;99.90
19654;DHT22;9975;48.046;7.804;2023-02-03T02:41:27;5.50;99.90
19654;DHT22;9975;48.046;7.804;2023-02-03T02:46:32;5.50;99.90
19654;DHT22;9975;48.046;7.804;2023-02-03T02:49:18;5.40;99.90
19654;DHT22;9975;48.046;7.804;2023-02-03T02:51:45;5.50;99.90
19654;DHT22;9975;48.046;7.804;2023-02-03T02:54:16;5.50;99.90
19654;DHT22;9975;48.046;7.804;2023-02-03T02:56:45;5.40;99.90
19654;DHT22;9975;48.046;7.804;2023-02-03T02:59:13;5.50;99.90
19654;DHT22;9975;48.046;7.804;2023-02-03T03:01:39;5.50;99.90
19654;DHT22;9975;48.046;7.804;2023-02-03T03:04:06;5.40;99.90
19654;DHT22;9975;48.046;7.804;2023-02-03T03:06:43;5.40;99.90
19654;DHT22;9975;48.046;7.804;2023-02-03T03:09:20;5.30;99.90
19654;DHT22;9975;48.046;7.804;2023-02-03T03:11:50;5.30;99.90
19654;DHT22;9975;48.046;7.804;2023-02-03T03:14:19;5.30;99.90
19654;DHT22;9975;48.046;7.804;2023-02-03T03:16:56;5.20;99.90
19654;DHT22;9975;48.046;7.804;2023-02-03T03:19:27;5.20;99.90
19654;DHT22;9975;48.046;7.804;2023-02-03T03:22:00;5.20;99.90
19654;DHT22;9975;48.046;7.804;2023-02-03T03:24:42;5.20;99.90
19654;DHT22;9975;48.046;7.804;2023-02-03T03:27:18;5.20;99.90
19654;DHT22;9975;48.046;7.804;2023-02-03T03:29:59;5.10;99.90
19654;DHT22;9975;48.046;7.804;2023-02-03T03:32:26;5.00;99.90
19654;DHT22;9975;48.046;7.804;2023-02-03T03:34:58;5.20;99.90
19654;DHT22;9975;48.046;7.804;2023-02-03T03:40:55;5.10;99.90
19654;DHT22;9975;48.046;7.804;2023-02-03T03:43:28;5.10;99.90
19654;DHT22;9975;48.046;7.804;2023-02-03T03:46:16;7.00;99.90
19654;DHT22;9975;48.046;7.804;2023-02-03T03:48:54;5.00;99.90
19654;DHT22;9975;48.046;7.804;2023-02-03T03:53:49;5.00;99.90
19654;DHT22;9975;48.046;7.804;2023-02-03T03:56:20;5.00;99.90
19654;DHT22;9975;48.046;7.804;2023-02-03T03:58:48;5.00;99.90
19654;DHT22;9975;48.046;7.804;2023-02-03T04:01:15;5.20;99.90
19654;DHT22;9975;48.046;7.804;2023-02-03T04:03:51;5.00;99.90
19654;DHT22;9975;48.046;7.804;2023-02-03T04:06:18;5.00;99.90
19654;DHT22;9975;48.046;7.804;2023-02-03T04:08:44;5.20;99.90
19654;DHT22;9975;48.046;7.804;2023-02-03T04:11:09;5.10;99.90
19654;DHT22;9975;48.046;7.804;2023-02-03T04:16:01;5.10;99.90
19654;DHT22;9975;48.046;7.804;2023-02-03T04:20:52;5.20;99.90
19654;DHT22;9975;48.046;7.804;2023-02-03T04:23:18;5.30;99.90
19654;DHT22;9975;48.046;7.804;2023-02-03T04:25:44;5.10;99.90
19654;DHT22;9975;48.046;7.804;2023-02-03T04:28:09;5.20;99.90
19654;DHT22;9975;48.046;7.804;2023-02-03T04:30:35;5.20;99.90
19654;DHT22;9975;48.046;7.804;2023-02-03T04:33:00;5.40;99.90
19654;DHT22;9975;48.046;7.804;2023-02-03T04:37:52;5.30;99.90
19654;DHT22;9975;48.046;7.804;2023-02-03T04:40:18;5.30;99.90
19654;DHT22;9975;48.046;7.804;2023-02-03T04:42:43;5.40;99.90
19654;DHT22;9975;48.046;7.804;2023-02-03T04:45:11;5.20;99.90
19654;DHT22;9975;48.046;7.804;2023-02-03T04:47:37;5.40;99.90
19654;DHT22;9975;48.046;7.804;2023-02-03T04:50:04;5.40;99.90
19654;DHT22;9975;48.046;7.804;2023-02-03T04:52:29;8.70;99.90
19654;DHT22;9975;48.046;7.804;2023-02-03T04:54:55;5.40;99.90
19654;DHT22;9975;48.046;7.804;2023-02-03T04:57:20;5.30;99.90
19654;DHT22;9975;48.046;7.804;2023-02-03T05:02:12;5.30;99.90
19654;DHT22;9975;48.046;7.804;2023-02-03T05:04:37;5.40;99.90
19654;DHT22;9975;48.046;7.804;2023-02-03T05:07:03;5.30;99.90
19654;DHT22;9975;48.046;7.804;2023-02-03T05:11:55;5.40;99.90
19654;DHT22;9975;48.046;7.804;2023-02-03T05:14:20;5.40;99.90
19654;DHT22;9975;48.046;7.804;2023-02-03T05:21:38;5.40;99.90
19654;DHT22;9975;48.046;7.804;2023-02-03T05:24:04;5.30;99.90
19654;DHT22;9975;48.046;7.804;2023-02-03T05:26:32;5.40;99.90
19654;DHT22;9975;48.046;7.804;2023-02-03T05:28:58;5.40;99.90
19654;DHT22;9975;48.046;7.804;2023-02-03T05:31:23;5.40;99.90
19654;DHT22;9975;48.046;7.804;2023-02-03T05:38:41;5.30;99.90
19654;DHT22;9975;48.046;7.804;2023-02-03T05:41:09;5.40;99.90
19654;DHT22;9975;48.046;7.804;2023-02-03T05:43:53;5.40;99.90
19654;DHT22;9975;48.046;7.804;2023-02-03T05:46:19;5.40;99.90
19654;DHT22;9975;48.046;7.804;2023-02-03T05:48:44;5.50;99.90
19654;DHT22;9975;48.046;7.804;2023-02-03T05:53:36;5.40;99.90
19654;DHT22;9975;48.046;7.804;2023-02-03T05:58:28;5.30;99.90
19654;DHT22;9975;48.046;7.804;2023-02-03T06:00:53;5.40;99.90
19654;DHT22;9975;48.046;7.804;2023-02-03T06:03:19;5.40;99.90
19654;DHT22;9975;48.046;7.804;2023-02-03T06:05:44;5.40;99.90
19654;DHT22;9975;48.046;7.804;2023-02-03T06:08:10;5.40;99.90
19654;DHT22;9975;48.046;7.804;2023-02-03T06:10:36;5.40;99.90
19654;DHT22;9975;48.046;7.804;2023-02-03T06:13:12;5.40;99.90
19654;DHT22;9975;48.046;7.804;2023-02-03T06:15:39;5.40;99.90
19654;DHT22;9975;48.046;7.804;2023-02-03T06:18:05;5.30;99.90
19654;DHT22;9975;48.046;7.804;2023-02-03T06:20:30;5.50;99.90
19654;DHT22;9975;48.046;7.804;2023-02-03T06:22:56;5.40;99.90
19654;DHT22;9975;48.046;7.804;2023-02-03T06:25:22;5.50;99.90
19654;DHT22;9975;48.046;7.804;2023-02-03T06:27:49;5.40;99.90
19654;DHT22;9975;48.046;7.804;2023-02-03T06:30:14;5.40;99.90
19654;DHT22;9975;48.046;7.804;2023-02-03T06:32:40;5.50;99.90
19654;DHT22;9975;48.046;7.804;2023-02-03T06:35:06;5.40;99.90
19654;DHT22;9975;48.046;7.804;2023-02-03T06:37:50;5.40;99.90
19654;DHT22;9975;48.046;7.804;2023-02-03T06:40:16;5.40;99.90
19654;DHT22;9975;48.046;7.804;2023-02-03T06:42:48;5.40;99.90
19654;DHT22;9975;48.046;7.804;2023-02-03T06:45:15;5.30;99.90
19654;DHT22;9975;48.046;7.804;2023-02-03T06:47:42;5.40;99.90
19654;DHT22;9975;48.046;7.804;2023-02-03T06:50:15;5.30;99.90
19654;DHT22;9975;48.046;7.804;2023-02-03T06:52:41;5.30;99.90
19654;DHT22;9975;48.046;7.804;2023-02-03T06:55:07;5.30;99.90
19654;DHT22;9975;48.046;7.804;2023-02-03T06:59:59;5.30;99.90
19654;DHT22;9975;48.046;7.804;2023-02-03T07:04:50;5.30;99.90
19654;DHT22;9975;48.046;7.804;2023-02-03T07:09:42;5.30;99.90
19654;DHT22;9975;48.046;7.804;2023-02-03T07:12:08;5.40;99.90
19654;DHT22;9975;48.046;7.804;2023-02-03T07:14:34;5.40;99.90
19654;DHT22;9975;48.046;7.804;2023-02-03T07:17:01;5.30;99.90
19654;DHT22;9975;48.046;7.804;2023-02-03T07:19:28;5.40;99.90
19654;DHT22;9975;48.046;7.804;2023-02-03T07:21:53;5.40;99.90
19654;DHT22;9975;48.046;7.804;2023-02-03T07:24:19;5.40;99.90
19654;DHT22;9975;48.046;7.804;2023-02-03T07:29:11;5.40;99.90
19654;DHT22;9975;48.046;7.804;2023-02-03T07:31:36;5.40;99.90
19654;DHT22;9975;48.046;7.804;2023-02-03T07:34:03;5.40;99.90
19654;DHT22;9975;48.046;7.804;2023-02-03T07:36:28;5.40;99.90
19654;DHT22;9975;48.046;7.804;2023-02-03T07:38:54;5.40;99.90
19654;DHT22;9975;48.046;7.804;2023-02-03T07:41:20;5.40;99.90
19654;DHT22;9975;48.046;7.804;2023-02-03T07:43:46;5.50;99.90
19654;DHT22;9975;48.046;7.804;2023-02-03T07:46:13;5.50;99.90
19654;DHT22;9975;48.046;7.804;2023-02-03T07:48:38;5.50;99.90
19654;DHT22;9975;48.046;7.804;2023-02-03T07:53:31;5.50;99.90
19654;DHT22;9975;48.046;7.804;2023-02-03T07:56:00;5.70;99.90
19654;DHT22;9975;48.046;7.804;2023-02-03T08:03:19;5.60;99.90
19654;DHT22;9975;48.046;7.804;2023-02-03T08:05:44;5.60;99.90
19654;DHT22;9975;48.046;7.804;2023-02-03T08:10:36;5.70;99.90
19654;DHT22;9975;48.046;7.804;2023-02-03T08:13:01;5.70;99.90
19654;DHT22;9975;48.046;7.804;2023-02-03T08:15:27;5.60;99.90
19654;DHT22;9975;48.046;7.804;2023-02-03T08:17:52;5.70;99.90
19654;DHT22;9975;48.046;7.804;2023-02-03T08:20:19;5.80;99.90
19654;DHT22;9975;48.046;7.804;2023-02-03T08:22:44;5.70;99.90
19654;DHT22;9975;48.046;7.804;2023-02-03T08:25:11;5.60;99.90
19654;DHT22;9975;48.046;7.804;2023-02-03T08:27:37;5.80;99.90
19654;DHT22;9975;48.046;7.804;2023-02-03T08:30:05;5.80;99.90
19654;DHT22;9975;48.046;7.804;2023-02-03T08:32:31;5.90;99.90
19654;DHT22;9975;48.046;7.804;2023-02-03T08:34:57;5.90;99.90
19654;DHT22;9975;48.046;7.804;2023-02-03T08:37:25;5.90;99.90
19654;DHT22;9975;48.046;7.804;2023-02-03T08:40:00;5.80;99.90
19654;DHT22;9975;48.046;7.804;2023-02-03T08:42:46;6.00;99.90
19654;DHT22;9975;48.046;7.804;2023-02-03T08:45:12;6.00;99.90
19654;DHT22;9975;48.046;7.804;2023-02-03T08:50:05;6.10;99.90
19654;DHT22;9975;48.046;7.804;2023-02-03T08:52:31;6.10;99.90
19654;DHT22;9975;48.046;7.804;2023-02-03T08:54:56;6.10;99.90
19654;DHT22;9975;48.046;7.804;2023-02-03T08:57:22;6.20;99.90
19654;DHT22;9975;48.046;7.804;2023-02-03T08:59:48;6.20;99.90
19654;DHT22;9975;48.046;7.804;2023-02-03T09:02:17;6.30;99.90
19654;DHT22;9975;48.046;7.804;2023-02-03T09:04:44;6.30;99.90
19654;DHT22;9975;48.046;7.804;2023-02-03T09:09:36;6.30;99.90
19654;DHT22;9975;48.046;7.804;2023-02-03T09:12:04;6.20;99.90
19654;DHT22;9975;48.046;7.804;2023-02-03T09:14:31;6.50;99.90
19654;DHT22;9975;48.046;7.804;2023-02-03T09:16:58;6.40;99.90
19654;DHT22;9975;48.046;7.804;2023-02-03T09:19:24;6.40;99.90
19654;DHT22;9975;48.046;7.804;2023-02-03T09:21:50;6.40;99.90
19654;DHT22;9975;48.046;7.804;2023-02-03T09:24:16;6.40;99.90
19654;DHT22;9975;48.046;7.804;2023-02-03T09:26:42;6.50;99.90
19654;DHT22;9975;48.046;7.804;2023-02-03T09:29:08;6.60;99.90
19654;DHT22;9975;48.046;7.804;2023-02-03T09:31:34;6.60;99.90
19654;DHT22;9975;48.046;7.804;2023-02-03T09:33:59;6.60;99.90
19654;DHT22;9975;48.046;7.804;2023-02-03T09:36:25;6.60;99.90
19654;DHT22;9975;48.046;7.804;2023-02-03T09:38:51;6.70;99.90
19654;DHT22;9975;48.046;7.804;2023-02-03T09:44:11;6.70;99.90
19654;DHT22;9975;48.046;7.804;2023-02-03T09:46:45;6.80;99.90
19654;DHT22;9975;48.046;7.804;2023-02-03T09:49:26;6.60;99.90
19654;DHT22;9975;48.046;7.804;2023-02-03T09:51:54;6.70;99.90
19654;DHT22;9975;48.046;7.804;2023-02-03T09:56:56;6.70;99.90
19654;DHT22;9975;48.046;7.804;2023-02-03T09:59:25;6.80;99.90
19654;DHT22;9975;48.046;7.804;2023-02-03T10:01:56;6.70;99.90
19654;DHT22;9975;48.046;7.804;2023-02-03T10:04:35;6.90;99.90
19654;DHT22;9975;48.046;7.804;2023-02-03T10:07:18;6.90;99.90
19654;DHT22;9975;48.046;7.804;2023-02-03T10:16:19;7.00;99.90
19654;DHT22;9975;48.046;7.804;2023-02-03T10:18:46;7.00;99.90
19654;DHT22;9975;48.046;7.804;2023-02-03T10:21:37;7.10;99.90
19654;DHT22;9975;48.046;7.804;2023-02-03T10:24:14;7.10;99.90
19654;DHT22;9975;48.046;7.804;2023-02-03T10:26:41;7.10;99.90
19654;DHT22;9975;48.046;7.804;2023-02-03T10:31:49;7.00;99.90
19654;DHT22;9975;48.046;7.804;2023-02-03T10:34:16;7.20;99.90
19654;DHT22;9975;48.046;7.804;2023-02-03T10:39:47;7.20;99.90
19654;DHT22;9975;48.046;7.804;2023-02-03T10:42:14;7.20;99.90
19654;DHT22;9975;48.046;7.804;2023-02-03T10:44:58;7.30;99.90
19654;DHT22;9975;48.046;7.804;2023-02-03T10:47:40;7.30;99.90
19654;DHT22;9975;48.046;7.804;2023-02-03T10:50:19;7.30;99.90
19654;DHT22;9975;48.046;7.804;2023-02-03T10:52:45;7.60;99.90
19654;DHT22;9975;48.046;7.804;2023-02-03T10:57:47;8.00;99.90
19654;DHT22;9975;48.046;7.804;2023-02-03T11:00:23;8.00;99.90
19654;DHT22;9975;48.046;7.804;2023-02-03T11:03:25;8.10;99.90
19654;DHT22;9975;48.046;7.804;2023-02-03T11:06:15;8.20;99.90
19654;DHT22;9975;48.046;7.804;2023-02-03T11:08:47;8.30;99.90
19654;DHT22;9975;48.046;7.804;2023-02-03T11:11:22;8.40;99.90
19654;DHT22;9975;48.046;7.804;2023-02-03T11:16:28;8.30;99.90
19654;DHT22;9975;48.046;7.804;2023-02-03T11:19:06;8.10;99.90
19654;DHT22;9975;48.046;7.804;2023-02-03T11:21:45;8.10;99.90
19654;DHT22;9975;48.046;7.804;2023-02-03T11:24:31;8.00;99.90
19654;DHT22;9975;48.046;7.804;2023-02-03T11:27:10;8.00;99.90
19654;DHT22;9975;48.046;7.804;2023-02-03T11:29:42;8.00;99.90
19654;DHT22;9975;48.046;7.804;2023-02-03T11:32:32;8.00;99.90
19654;DHT22;9975;48.046;7.804;2023-02-03T11:35:05;8.00;99.90
19654;DHT22;9975;48.046;7.804;2023-02-03T11:37:40;8.10;99.90
19654;DHT22;9975;48.046;7.804;2023-02-03T11:42:38;8.00;99.90
19654;DHT22;9975;48.046;7.804;2023-02-03T11:45:26;8.00;99.90
19654;DHT22;9975;48.046;7.804;2023-02-03T11:51:21;8.00;99.90
19654;DHT22;9975;48.046;7.804;2023-02-03T11:53:59;8.00;99.90
19654;DHT22;9975;48.046;7.804;2023-02-03T12:09:59;8.20;99.90
19654;DHT22;9975;48.046;7.804;2023-02-03T12:12:51;8.30;99.90
19654;DHT22;9975;48.046;7.804;2023-02-03T12:23:59;8.40;99.90
19654;DHT22;9975;48.046;7.804;2023-02-03T12:29:17;8.40;99.90
19654;DHT22;9975;48.046;7.804;2023-02-03T12:32:33;8.40;99.90
19654;DHT22;9975;48.046;7.804;2023-02-03T12:38:01;8.40;99.90
19654;DHT22;9975;48.046;7.804;2023-02-03T12:40:49;8.30;99.90
19654;DHT22;9975;48.046;7.804;2023-02-03T12:45:57;8.20;99.90
19654;DHT22;9975;48.046;7.804;2023-02-03T12:48:39;8.20;99.90
19654;DHT22;9975;48.046;7.804;2023-02-03T12:51:12;8.20;99.90
19654;DHT22;9975;48.046;7.804;2023-02-03T12:53:41;8.20;99.90
19654;DHT22;9975;48.046;7.804;2023-02-03T12:56:30;8.20;99.90
19654;DHT22;9975;48.046;7.804;2023-02-03T12:59:04;8.20;99.90
19654;DHT22;9975;48.046;7.804;2023-02-03T13:01:35;8.20;99.90
19654;DHT22;9975;48.046;7.804;2023-02-03T13:04:23;8.20;99.90
19654;DHT22;9975;48.046;7.804;2023-02-03T13:07:07;8.20;99.90
19654;DHT22;9975;48.046;7.804;2023-02-03T13:09:41;8.10;99.90
19654;DHT22;9975;48.046;7.804;2023-02-03T13:17:19;8.10;99.90
19654;DHT22;9975;48.046;7.804;2023-02-03T13:19:53;8.10;99.90
19654;DHT22;9975;48.046;7.804;2023-02-03T13:22:21;8.20;99.90
19654;DHT22;9975;48.046;7.804;2023-02-03T13:25:15;8.00;99.90
19654;DHT22;9975;48.046;7.804;2023-02-03T13:28:00;8.20;99.90
19654;DHT22;9975;48.046;7.804;2023-02-03T13:36:15;8.10;99.90
19654;DHT22;9975;48.046;7.804;2023-02-03T13:45:22;8.10;99.90
19654;DHT22;9975;48.046;7.804;2023-02-03T13:47:50;8.10;99.90
19654;DHT22;9975;48.046;7.804;2023-02-03T13:50:28;8.10;99.90
19654;DHT22;9975;48.046;7.804;2023-02-03T13:53:01;8.10;99.90
19654;DHT22;9975;48.046;7.804;2023-02-03T13:55:37;8.00;99.90
19654;DHT22;9975;48.046;7.804;2023-02-03T13:58:05;8.10;99.90
19654;DHT22;9975;48.046;7.804;2023-02-03T14:03:40;8.00;99.90
19654;DHT22;9975;48.046;7.804;2023-02-03T14:09:01;8.00;99.90
19654;DHT22;9975;48.046;7.804;2023-02-03T14:11:38;8.00;99.90
19654;DHT22;9975;48.046;7.804;2023-02-03T14:21:36;8.00;99.90
19654;DHT22;9975;48.046;7.804;2023-02-03T14:24:07;8.00;99.90
19654;DHT22;9975;48.046;7.804;2023-02-03T14:26:41;8.00;99.90
19654;DHT22;9975;48.046;7.804;2023-02-03T14:29:38;8.00;99.90
19654;DHT22;9975;48.046;7.804;2023-02-03T14:32:15;8.00;99.90
19654;DHT22;9975;48.046;7.804;2023-02-03T14:34:45;7.90;99.90
19654;DHT22;9975;48.046;7.804;2023-02-03T14:37:30;8.00;99.90
19654;DHT22;9975;48.046;7.804;2023-02-03T14:42:47;7.90;99.90
19654;DHT22;9975;48.046;7.804;2023-02-03T14:48:20;7.90;99.90
19654;DHT22;9975;48.046;7.804;2023-02-03T14:51:04;7.90;99.90
19654;DHT22;9975;48.046;7.804;2023-02-03T14:56:39;8.00;99.90
19654;DHT22;9975;48.046;7.804;2023-02-03T14:59:37;7.90;99.90
19654;DHT22;9975;48.046;7.804;2023-02-03T15:02:10;7.90;99.90
19654;DHT22;9975;48.046;7.804;2023-02-03T15:04:36;7.90;99.90
19654;DHT22;9975;48.046;7.804;2023-02-03T15:09:45;7.90;99.90
19654;DHT22;9975;48.046;7.804;2023-02-03T15:12:22;7.90;99.90
19654;DHT22;9975;48.046;7.804;2023-02-03T15:14:48;7.90;99.90
19654;DHT22;9975;48.046;7.804;2023-02-03T15:17:27;7.90;99.90
19654;DHT22;9975;48.046;7.804;2023-02-03T15:19:55;7.90;99.90
19654;DHT22;9975;48.046;7.804;2023-02-03T15:22:23;7.90;99.90
19654;DHT22;9975;48.046;7.804;2023-02-03T15:24:55;7.90;99.90
19654;DHT22;9975;48.046;7.804;2023-02-03T15:27:26;7.90;99.90
19654;DHT22;9975;48.046;7.804;2023-02-03T15:29:53;7.90;99.90
19654;DHT22;9975;48.046;7.804;2023-02-03T15:32:26;7.90;99.90
19654;DHT22;9975;48.046;7.804;2023-02-03T15:34:54;7.90;99.90
19654;DHT22;9975;48.046;7.804;2023-02-03T15:37:29;7.90;99.90
19654;DHT22;9975;48.046;7.804;2023-02-03T15:40:06;7.80;99.90
19654;DHT22;9975;48.046;7.804;2023-02-03T15:45:25;7.90;99.90
19654;DHT22;9975;48.046;7.804;2023-02-03T15:48:06;7.80;99.90
19654;DHT22;9975;48.046;7.804;2023-02-03T15:50:52;7.90;99.90
19654;DHT22;9975;48.046;7.804;2023-02-03T15:53:30;7.90;99.90
19654;DHT22;9975;48.046;7.804;2023-02-03T15:56:00;7.80;99.90
19654;DHT22;9975;48.046;7.804;2023-02-03T15:58:31;7.80;99.90
19654;DHT22;9975;48.046;7.804;2023-02-03T16:01:04;7.80;99.90
19654;DHT22;9975;48.046;7.804;2023-02-03T16:06:29;7.80;99.90
19654;DHT22;9975;48.046;7.804;2023-02-03T16:09:00;7.70;99.90
19654;DHT22;9975;48.046;7.804;2023-02-03T16:11:34;7.80;99.90
19654;DHT22;9975;48.046;7.804;2023-02-03T16:14:10;7.70;99.90
19654;DHT22;9975;48.046;7.804;2023-02-03T16:16:48;7.70;99.90
19654;DHT22;9975;48.046;7.804;2023-02-03T16:19:22;7.80;99.90
19654;DHT22;9975;48.046;7.804;2023-02-03T16:30:21;7.60;99.90
19654;DHT22;9975;48.046;7.804;2023-02-03T16:35:57;7.70;99.90
19654;DHT22;9975;48.046;7.804;2023-02-03T16:41:30;7.70;99.90
19654;DHT22;9975;48.046;7.804;2023-02-03T16:44:15;7.70;99.90
19654;DHT22;9975;48.046;7.804;2023-02-03T16:46:59;7.70;99.90
19654;DHT22;9975;48.046;7.804;2023-02-03T16:49:43;7.70;99.90
19654;DHT22;9975;48.046;7.804;2023-02-03T16:52:27;7.60;99.90
19654;DHT22;9975;48.046;7.804;2023-02-03T16:54:54;7.60;99.90
19654;DHT22;9975;48.046;7.804;2023-02-03T16:57:20;7.60;99.90
19654;DHT22;9975;48.046;7.804;2023-02-03T16:59:46;7.70;99.90
19654;DHT22;9975;48.046;7.804;2023-02-03T17:02:15;7.60;99.90
19654;DHT22;9975;48.046;7.804;2023-02-03T17:04:41;7.60;99.90
19654;DHT22;9975;48.046;7.804;2023-02-03T17:07:07;7.60;99.90
19654;DHT22;9975;48.046;7.804;2023-02-03T17:09:32;7.60;99.90
19654;DHT22;9975;48.046;7.804;2023-02-03T17:12:01;7.60;99.90
19654;DHT22;9975;48.046;7.804;2023-02-03T17:14:27;9.60;99.90
19654;DHT22;9975;48.046;7.804;2023-02-03T17:16:53;7.60;99.90
19654;DHT22;9975;48.046;7.804;2023-02-03T17:19:19;7.60;99.90
19654;DHT22;9975;48.046;7.804;2023-02-03T17:24:12;7.60;99.90
19654;DHT22;9975;48.046;7.804;2023-02-03T17:26:37;7.70;99.90
19654;DHT22;9975;48.046;7.804;2023-02-03T17:29:03;7.80;99.90
19654;DHT22;9975;48.046;7.804;2023-02-03T17:31:30;7.60;99.90
19654;DHT22;9975;48.046;7.804;2023-02-03T17:33:56;7.70;99.90
19654;DHT22;9975;48.046;7.804;2023-02-03T17:36:22;7.60;99.90
19654;DHT22;9975;48.046;7.804;2023-02-03T17:38:51;7.60;99.90
19654;DHT22;9975;48.046;7.804;2023-02-03T17:41:20;7.60;99.90
19654;DHT22;9975;48.046;7.804;2023-02-03T17:43:47;7.70;99.90
19654;DHT22;9975;48.046;7.804;2023-02-03T17:46:15;7.70;99.90
19654;DHT22;9975;48.046;7.804;2023-02-03T17:53:39;7.70;99.90
19654;DHT22;9975;48.046;7.804;2023-02-03T17:58:39;7.70;99.90
19654;DHT22;9975;48.046;7.804;2023-02-03T18:01:09;7.70;99.90
19654;DHT22;9975;48.046;7.804;2023-02-03T18:03:51;7.70;99.90
19654;DHT22;9975;48.046;7.804;2023-02-03T18:06:20;7.60;99.90
19654;DHT22;9975;48.046;7.804;2023-02-03T18:08:46;7.70;99.90
19654;DHT22;9975;48.046;7.804;2023-02-03T18:11:13;7.60;99.90
19654;DHT22;9975;48.046;7.804;2023-02-03T18:13:41;7.70;99.90
19654;DHT22;9975;48.046;7.804;2023-02-03T18:16:12;7.50;99.90
19654;DHT22;9975;48.046;7.804;2023-02-03T18:18:40;7.40;99.90
19654;DHT22;9975;48.046;7.804;2023-02-03T18:21:07;7.50;99.90
19654;DHT22;9975;48.046;7.804;2023-02-03T18:23:35;7.50;99.90
19654;DHT22;9975;48.046;7.804;2023-02-03T18:26:02;7.50;99.90
19654;DHT22;9975;48.046;7.804;2023-02-03T18:28:54;7.40;99.90
19654;DHT22;9975;48.046;7.804;2023-02-03T18:31:20;7.40;99.90
19654;DHT22;9975;48.046;7.804;2023-02-03T18:33:46;7.40;99.90
19654;DHT22;9975;48.046;7.804;2023-02-03T18:36:13;7.40;99.90
19654;DHT22;9975;48.046;7.804;2023-02-03T18:38:41;7.30;99.90
19654;DHT22;9975;48.046;7.804;2023-02-03T18:41:26;7.40;99.90
19654;DHT22;9975;48.046;7.804;2023-02-03T18:46:20;7.40;99.90
19654;DHT22;9975;48.046;7.804;2023-02-03T18:48:46;7.30;99.90
19654;DHT22;9975;48.046;7.804;2023-02-03T18:51:14;7.20;99.90
19654;DHT22;9975;48.046;7.804;2023-02-03T18:53:40;7.30;99.90
19654;DHT22;9975;48.046;7.804;2023-02-03T18:56:14;7.30;99.90
19654;DHT22;9975;48.046;7.804;2023-02-03T18:58:40;7.30;99.90
19654;DHT22;9975;48.046;7.804;2023-02-03T19:01:06;7.30;99.90
19654;DHT22;9975;48.046;7.804;2023-02-03T19:03:33;7.30;99.90
19654;DHT22;9975;48.046;7.804;2023-02-03T19:05:59;7.50;99.90
19654;DHT22;9975;48.046;7.804;2023-02-03T19:08:25;7.30;99.90
19654;DHT22;9975;48.046;7.804;2023-02-03T19:10:52;7.40;99.90
19654;DHT22;9975;48.046;7.804;2023-02-03T19:13:18;7.40;99.90
19654;DHT22;9975;48.046;7.804;2023-02-03T19:15:45;7.40;99.90
19654;DHT22;9975;48.046;7.804;2023-02-03T19:18:12;7.40;99.90
19654;DHT22;9975;48.046;7.804;2023-02-03T19:20:38;7.30;99.90
19654;DHT22;9975;48.046;7.804;2023-02-03T19:23:03;7.40;99.90
19654;DHT22;9975;48.046;7.804;2023-02-03T19:25:35;7.40;99.90
19654;DHT22;9975;48.046;7.804;2023-02-03T19:28:02;7.50;99.90
19654;DHT22;9975;48.046;7.804;2023-02-03T19:30:30;7.50;99.90
19654;DHT22;9975;48.046;7.804;2023-02-03T19:32:55;7.50;99.90
19654;DHT22;9975;48.046;7.804;2023-02-03T19:37:47;7.40;99.90
19654;DHT22;9975;48.046;7.804;2023-02-03T19:40:12;7.40;99.90
19654;DHT22;9975;48.046;7.804;2023-02-03T19:42:38;7.50;99.90
19654;DHT22;9975;48.046;7.804;2023-02-03T19:45:04;7.60;99.90
19654;DHT22;9975;48.046;7.804;2023-02-03T19:47:30;7.40;99.90
19654;DHT22;9975;48.046;7.804;2023-02-03T19:49:56;7.40;99.90
19654;DHT22;9975;48.046;7.804;2023-02-03T19:54:48;7.40;99.90
19654;DHT22;9975;48.046;7.804;2023-02-03T19:57:13;7.40;99.90
19654;DHT22;9975;48.046;7.804;2023-02-03T19:59:39;7.40;99.90
19654;DHT22;9975;48.046;7.804;2023-02-03T20:04:30;7.50;99.90
19654;DHT22;9975;48.046;7.804;2023-02-03T20:09:24;7.50;99.90
19654;DHT22;9975;48.046;7.804;2023-02-03T20:19:10;7.50;99.90
19654;DHT22;9975;48.046;7.804;2023-02-03T20:21:35;7.30;99.90
19654;DHT22;9975;48.046;7.804;2023-02-03T20:24:01;7.40;99.90
19654;DHT22;9975;48.046;7.804;2023-02-03T20:28:53;7.40;99.90
19654;DHT22;9975;48.046;7.804;2023-02-03T20:36:11;7.30;99.90
19654;DHT22;9975;48.046;7.804;2023-02-03T20:41:10;7.30;99.90
19654;DHT22;9975;48.046;7.804;2023-02-03T20:43:37;7.40;99.90
19654;DHT22;9975;48.046;7.804;2023-02-03T20:46:08;7.40;99.90
19654;DHT22;9975;48.046;7.804;2023-02-03T20:48:35;7.40;99.90
19654;DHT22;9975;48.046;7.804;2023-02-03T20:51:00;7.30;99.90
19654;DHT22;9975;48.046;7.804;2023-02-03T20:53:26;7.30;99.90
19654;DHT22;9975;48.046;7.804;2023-02-03T20:55:57;7.30;99.90
19654;DHT22;9975;48.046;7.804;2023-02-03T20:58:28;7.20;99.90
19654;DHT22;9975;48.046;7.804;2023-02-03T21:00:56;7.40;99.90
19654;DHT22;9975;48.046;7.804;2023-02-03T21:03:23;7.20;99.90
19654;DHT22;9975;48.046;7.804;2023-02-03T21:08:37;7.30;99.90
19654;DHT22;9975;48.046;7.804;2023-02-03T21:11:09;7.30;99.90
19654;DHT22;9975;48.046;7.804;2023-02-03T21:13:35;7.20;99.90
19654;DHT22;9975;48.046;7.804;2023-02-03T21:16:01;7.20;99.90
19654;DHT22;9975;48.046;7.804;2023-02-03T21:18:56;7.20;99.90
19654;DHT22;9975;48.046;7.804;2023-02-03T21:21:36;7.20;99.90
19654;DHT22;9975;48.046;7.804;2023-02-03T21:24:26;7.10;99.90
19654;DHT22;9975;48.046;7.804;2023-02-03T21:26:55;7.00;99.90
19654;DHT22;9975;48.046;7.804;2023-02-03T21:29:32;7.00;99.90
19654;DHT22;9975;48.046;7.804;2023-02-03T21:31:58;6.90;99.90
19654;DHT22;9975;48.046;7.804;2023-02-03T21:36:50;6.80;99.90
19654;DHT22;9975;48.046;7.804;2023-02-03T21:39:28;6.70;99.90
19654;DHT22;9975;48.046;7.804;2023-02-03T21:41:55;6.70;99.90
19654;DHT22;9975;48.046;7.804;2023-02-03T21:44:33;6.70;99.90
19654;DHT22;9975;48.046;7.804;2023-02-03T21:47:11;6.50;99.90
19654;DHT22;9975;48.046;7.804;2023-02-03T21:49:39;6.50;99.90
19654;DHT22;9975;48.046;7.804;2023-02-03T21:52:11;6.40;99.90
19654;DHT22;9975;48.046;7.804;2023-02-03T21:54:39;6.50;99.90
19654;DHT22;9975;48.046;7.804;2023-02-03T21:57:11;6.40;99.90
19654;DHT22;9975;48.046;7.804;2023-02-03T21:59:38;6.40;99.90
19654;DHT22;9975;48.046;7.804;2023-02-03T22:04:56;6.20;99.90
19654;DHT22;9975;48.046;7.804;2023-02-03T22:07:22;6.20;99.90
19654;DHT22;9975;48.046;7.804;2023-02-03T22:09:48;6.20;99.90
19654;DHT22;9975;48.046;7.804;2023-02-03T22:12:15;6.20;99.90
19654;DHT22;9975;48.046;7.804;2023-02-03T22:14:41;6.20;99.90
19654;DHT22;9975;48.046;7.804;2023-02-03T22:19:33;6.10;99.90
19654;DHT22;9975;48.046;7.804;2023-02-03T22:21:59;6.10;99.90
19654;DHT22;9975;48.046;7.804;2023-02-03T22:26:51;6.10;99.90